Hendricks, West Virginia
Current Conditions -  °F | °C
As of 4:51 AM on Tuesday 27 Jan 2015 (Local Time) from KEKN Reporting Station
Broken Clouds Broken Clouds  
Wind Chill: -12°   Ceiling: 2800
Heat Index: -7°   Visibility: 9mi
Dew Point: -10°   Wind: 7mph
Humidity: 78%   Direction: 290°WNW
Pressure: 29.79"   Gusts: NA
Location:  39.08°N, 79.63°W
Report Text: KEKN 270951Z AUTO 29006KT 9SM SCT023 BKN028 M07/M10 A2979 RMK AO2 SNE49 SLP116 P0000 T10671100 TSNO
Loading
Personal Weather Stations






























Interactive Weather Map New forecast layout! Learn more

10-Day Weather Forecast

Advertisements
Track Severe Weather on mobile